Time;durP1;ratioP1;P1;durP2;ratioP2;P2;SDS_P1;SDS_P2;PMS_P1;PMS_P2;Temp;Humidity;BMP_temperature;BMP_pressure;BME280_temperature;BME280_humidity;BME280_pressure;Samples;Min_cycle;Max_cycle;Signal;HPM_P1;HPM_P2
2021/11/18 00:00:55;;;;;;;11.07;4.47;;;6.70;98.30;;;;;;5102819;23;20770;-79
2021/11/18 00:02:58;;;;;;;10.67;5.10;;;6.70;98.30;;;;;;5094747;23;20486;-79
2021/11/18 00:05:01;;;;;;;9.90;4.20;;;6.70;98.30;;;;;;5103480;23;20394;-78
2021/11/18 00:07:05;;;;;;;10.10;4.30;;;6.60;98.30;;;;;;5094867;23;20979;-78
2021/11/18 00:09:09;;;;;;;13.30;4.43;;;6.60;98.30;;;;;;5094926;23;20931;-78
2021/11/18 00:11:15;;;;;;;15.23;4.67;;;6.60;98.30;;;;;;5102770;23;20522;-78
2021/11/18 00:13:18;;;;;;;14.30;4.87;;;6.60;98.30;;;;;;5095205;23;20391;-78
2021/11/18 00:15:25;;;;;;;17.00;4.70;;;6.60;98.30;;;;;;5094595;23;20429;-78
2021/11/18 00:17:28;;;;;;;12.87;4.80;;;6.60;98.30;;;;;;5094555;23;20451;-78
2021/11/18 00:19:31;;;;;;;18.00;5.20;;;6.60;98.30;;;;;;5094771;23;20438;-79
2021/11/18 00:21:40;;;;;;;13.23;5.37;;;6.60;98.30;;;;;;5095086;23;20728;-78
2021/11/18 00:23:45;;;;;;;15.13;5.13;;;6.60;98.30;;;;;;5094645;23;20491;-78
2021/11/18 00:25:48;;;;;;;14.90;5.07;;;6.60;98.30;;;;;;5102631;23;20768;-78
2021/11/18 00:27:51;;;;;;;9.93;4.83;;;6.60;98.30;;;;;;5095304;23;20453;-79
2021/11/18 00:29:54;;;;;;;13.03;4.63;;;6.60;98.30;;;;;;5095163;23;20403;-78
2021/11/18 00:31:58;;;;;;;8.10;4.47;;;6.60;98.30;;;;;;5095308;23;20416;-78
2021/11/18 00:34:02;;;;;;;14.60;5.80;;;6.60;98.30;;;;;;5095508;23;20455;-79
2021/11/18 00:36:07;;;;;;;14.43;5.10;;;6.60;98.30;;;;;;5094839;23;20435;-78
2021/11/18 00:38:10;;;;;;;13.90;4.33;;;6.60;98.30;;;;;;5094126;23;20457;-79
2021/11/18 00:40:14;;;;;;;11.80;4.53;;;6.60;98.30;;;;;;5094333;23;20413;-78
2021/11/18 00:42:17;;;;;;;12.27;4.77;;;6.60;98.30;;;;;;5094322;23;20436;-79
2021/11/18 00:44:20;;;;;;;9.97;4.17;;;6.60;98.30;;;;;;5094226;23;20472;-79
2021/11/18 00:46:23;;;;;;;27.90;5.63;;;6.50;98.30;;;;;;5094513;23;20701;-79
2021/11/18 00:48:28;;;;;;;10.10;4.23;;;6.50;98.30;;;;;;5093969;23;20429;-79
2021/11/18 00:50:34;;;;;;;10.30;4.27;;;6.50;98.30;;;;;;5093603;23;20491;-79
2021/11/18 00:52:37;;;;;;;25.23;5.67;;;6.50;98.30;;;;;;5093838;23;20446;-78
2021/11/18 00:54:40;;;;;;;12.43;4.90;;;6.50;98.30;;;;;;5093309;23;20426;-78
2021/11/18 00:56:43;;;;;;;9.00;4.60;;;6.50;98.30;;;;;;5101760;23;20424;-78
2021/11/18 00:58:46;;;;;;;17.67;4.80;;;6.50;98.30;;;;;;5093782;23;20437;-78
2021/11/18 01:00:50;;;;;;;13.13;4.30;;;6.50;98.30;;;;;;5094009;23;20407;-79
2021/11/18 01:02:54;;;;;;;13.50;4.80;;;6.40;98.30;;;;;;5094168;23;20428;-78
2021/11/18 01:04:58;;;;;;;11.40;4.53;;;6.40;98.30;;;;;;5093685;23;20505;-78
2021/11/18 01:07:01;;;;;;;13.63;4.90;;;6.40;98.30;;;;;;5093963;23;20750;-79
2021/11/18 01:09:28;;;;;;;12.93;5.10;;;6.40;98.30;;;;;;5101508;23;20423;-79
2021/11/18 01:11:33;;;;;;;9.50;4.33;;;6.40;98.30;;;;;;5094199;23;20433;-79
2021/11/18 01:13:37;;;;;;;14.73;5.37;;;6.30;98.30;;;;;;5094088;23;20426;-79
2021/11/18 01:15:42;;;;;;;14.93;4.70;;;6.30;98.30;;;;;;5094139;23;20913;-78
2021/11/18 01:17:45;;;;;;;12.70;5.20;;;6.30;98.30;;;;;;5093919;23;20538;-79
2021/11/18 01:19:48;;;;;;;15.43;4.83;;;6.30;98.30;;;;;;5093592;23;20435;-79
2021/11/18 01:21:53;;;;;;;17.53;5.20;;;6.30;98.30;;;;;;5093773;23;20888;-78
2021/11/18 01:23:57;;;;;;;15.20;5.40;;;6.30;98.30;;;;;;5093523;23;20495;-78
2021/11/18 01:26:00;;;;;;;13.47;5.20;;;6.30;98.30;;;;;;5094119;23;20939;-78
2021/11/18 01:28:03;;;;;;;16.40;5.87;;;6.30;98.30;;;;;;5094374;23;20431;-78
2021/11/18 01:30:09;;;;;;;15.27;5.13;;;6.40;98.30;;;;;;5101739;23;20402;-79
2021/11/18 01:32:12;;;;;;;16.73;5.70;;;6.40;98.30;;;;;;5101859;23;20430;-78
2021/11/18 01:34:15;;;;;;;17.97;5.33;;;6.40;98.30;;;;;;5101809;23;20785;-78
2021/11/18 01:36:17;;;;;;;15.93;4.93;;;6.40;98.30;;;;;;5093290;23;20909;-79
2021/11/18 01:38:22;;;;;;;16.67;5.97;;;6.40;98.30;;;;;;5093442;23;20426;-78
2021/11/18 01:40:27;;;;;;;10.43;4.70;;;6.40;98.30;;;;;;5093869;23;20442;-79
2021/11/18 01:42:30;;;;;;;9.27;4.90;;;6.40;98.30;;;;;;5094019;23;20980;-79
2021/11/18 01:44:37;;;;;;;14.33;4.70;;;6.40;98.30;;;;;;5093744;23;20437;-78
2021/11/18 01:46:41;;;;;;;19.23;6.87;;;6.40;98.30;;;;;;5094107;23;20431;-78
2021/11/18 01:48:47;;;;;;;13.23;6.17;;;6.50;98.30;;;;;;5093638;23;20412;-78
2021/11/18 01:50:52;;;;;;;15.43;5.43;;;6.40;98.30;;;;;;5094008;23;20438;-78
2021/11/18 01:52:57;;;;;;;14.23;5.30;;;6.40;98.30;;;;;;5094622;23;20411;-78
2021/11/18 01:55:01;;;;;;;13.67;5.70;;;6.50;98.30;;;;;;5094299;23;20451;-78
2021/11/18 01:57:08;;;;;;;18.97;5.40;;;6.50;98.30;;;;;;5094153;23;20434;-78
2021/11/18 01:59:14;;;;;;;15.43;5.50;;;6.50;98.30;;;;;;5094041;23;20490;-78
2021/11/18 02:01:18;;;;;;;22.03;5.70;;;6.50;98.30;;;;;;5093777;23;20406;-78
2021/11/18 02:03:21;;;;;;;20.73;5.97;;;6.50;98.30;;;;;;5093736;23;20522;-78
2021/11/18 02:05:27;;;;;;;15.90;5.43;;;6.50;98.30;;;;;;5093566;23;20437;-78
2021/11/18 02:07:30;;;;;;;14.13;5.83;;;6.40;98.30;;;;;;5092871;23;20408;-78
2021/11/18 02:09:37;;;;;;;18.27;5.53;;;6.40;98.30;;;;;;5101283;23;20461;-79
2021/11/18 02:11:44;;;;;;;18.83;5.50;;;6.40;98.30;;;;;;5093275;23;20405;-78
2021/11/18 02:13:47;;;;;;;17.90;5.97;;;6.40;98.30;;;;;;5101592;23;20839;-78
2021/11/18 02:15:52;;;;;;;13.90;5.23;;;6.40;98.30;;;;;;5092776;23;20431;-78
2021/11/18 02:17:57;;;;;;;21.33;5.30;;;6.40;98.30;;;;;;5093091;23;20426;-78
2021/11/18 02:20:03;;;;;;;13.17;5.73;;;6.40;98.30;;;;;;5093238;23;20409;-79
2021/11/18 02:22:06;;;;;;;18.07;5.73;;;6.40;98.30;;;;;;5093423;23;20401;-79
2021/11/18 02:24:17;;;;;;;18.13;5.77;;;6.40;98.30;;;;;;5093119;23;20785;-79
2021/11/18 02:26:22;;;;;;;16.47;5.47;;;6.40;98.30;;;;;;5093383;23;20439;-79
2021/11/18 02:28:27;;;;;;;16.37;6.00;;;6.40;98.30;;;;;;5093544;23;20382;-78
2021/11/18 02:30:35;;;;;;;19.90;5.87;;;6.40;98.30;;;;;;5093087;23;20896;-78
2021/11/18 02:32:40;;;;;;;11.77;5.27;;;6.40;98.30;;;;;;5093502;23;20749;-79
2021/11/18 02:34:48;;;;;;;17.00;6.93;;;6.40;98.30;;;;;;5093592;23;20798;-79
2021/11/18 02:36:52;;;;;;;14.93;6.87;;;6.40;98.30;;;;;;5093001;23;20410;-79
2021/11/18 02:38:55;;;;;;;15.97;5.27;;;6.40;98.30;;;;;;5092396;23;20454;-78
2021/11/18 02:40:58;;;;;;;18.93;5.27;;;6.50;98.30;;;;;;5093572;23;20431;-79
2021/11/18 02:43:02;;;;;;;15.63;5.20;;;6.40;98.30;;;;;;5093101;23;20410;-79
2021/11/18 02:45:08;;;;;;;18.37;5.67;;;6.40;98.30;;;;;;5092755;23;20435;-78
2021/11/18 02:47:12;;;;;;;15.37;5.70;;;6.50;98.30;;;;;;5100903;23;20764;-79
2021/11/18 02:49:15;;;;;;;12.10;4.80;;;6.50;98.30;;;;;;5100009;23;20879;-79
2021/11/18 02:51:21;;;;;;;19.30;5.93;;;6.50;98.30;;;;;;5092884;23;20438;-78
2021/11/18 02:53:26;;;;;;;20.63;6.10;;;6.50;98.30;;;;;;5092106;23;20466;-79
2021/11/18 02:55:31;;;;;;;14.50;5.20;;;6.50;98.30;;;;;;5092417;23;20386;-78
2021/11/18 02:57:34;;;;;;;19.77;5.70;;;6.50;98.30;;;;;;5100170;23;20423;-79
2021/11/18 02:59:39;;;;;;;14.90;6.00;;;6.50;98.30;;;;;;5100693;23;20447;-78
2021/11/18 03:01:44;;;;;;;9.77;4.90;;;6.60;98.30;;;;;;5100630;23;20394;-78
2021/11/18 03:03:47;;;;;;;15.03;5.17;;;6.60;98.30;;;;;;5093937;23;20672;-78
2021/11/18 03:05:50;;;;;;;11.23;5.00;;;6.60;98.30;;;;;;5093969;23;20432;-79
2021/11/18 03:07:53;;;;;;;13.60;5.03;;;6.60;98.30;;;;;;5094975;23;20431;-78
2021/11/18 03:09:58;;;;;;;14.00;5.13;;;6.60;98.30;;;;;;5094339;23;20496;-78
2021/11/18 03:12:01;;;;;;;17.97;5.13;;;6.60;98.30;;;;;;5095147;23;20901;-79
2021/11/18 03:14:04;;;;;;;17.47;5.33;;;6.60;98.30;;;;;;5094807;23;20463;-79
2021/11/18 03:16:09;;;;;;;13.87;4.90;;;6.60;98.30;;;;;;5094531;23;20435;-79
2021/11/18 03:18:12;;;;;;;15.40;5.40;;;6.60;98.30;;;;;;5094036;23;20403;-78
2021/11/18 03:20:17;;;;;;;12.17;5.53;;;6.60;98.30;;;;;;5102098;23;20480;-78
2021/11/18 03:22:20;;;;;;;22.30;6.00;;;6.70;98.30;;;;;;5094318;23;20437;-78
2021/11/18 03:24:23;;;;;;;18.23;6.00;;;6.70;98.30;;;;;;5094045;23;20519;-78
2021/11/18 03:26:31;;;;;;;17.77;5.23;;;6.70;98.30;;;;;;5093980;23;20432;-78
2021/11/18 03:28:34;;;;;;;13.43;5.40;;;6.70;98.30;;;;;;5102346;23;20428;-78
2021/11/18 03:30:41;;;;;;;16.80;5.27;;;6.70;98.30;;;;;;5093582;23;20435;-79
2021/11/18 03:32:44;;;;;;;14.30;6.50;;;6.70;98.30;;;;;;5093752;23;20431;-78
2021/11/18 03:34:47;;;;;;;21.37;6.60;;;6.70;98.30;;;;;;5093900;23;20449;-78
2021/11/18 03:36:50;;;;;;;18.10;5.10;;;6.70;98.30;;;;;;5093796;23;20429;-78
2021/11/18 03:38:53;;;;;;;13.33;5.37;;;6.70;98.30;;;;;;5093725;23;20454;-80
2021/11/18 03:41:03;;;;;;;14.50;5.30;;;6.80;98.30;;;;;;5096417;23;20434;-80
2021/11/18 03:43:09;;;;;;;14.00;5.53;;;6.70;98.30;;;;;;5095013;23;20433;-80
2021/11/18 03:45:13;;;;;;;17.10;5.70;;;6.80;98.30;;;;;;5095494;23;20431;-80
2021/11/18 03:47:17;;;;;;;11.67;5.03;;;6.80;98.30;;;;;;5095348;23;20524;-80
2021/11/18 03:49:20;;;;;;;17.53;6.33;;;6.80;98.30;;;;;;5095061;23;20429;-79
2021/11/18 03:51:24;;;;;;;14.90;6.33;;;6.80;98.30;;;;;;5103693;23;20521;-80
2021/11/18 03:53:27;;;;;;;18.83;6.10;;;6.80;98.30;;;;;;5095421;23;20425;-80
2021/11/18 03:55:30;;;;;;;20.03;6.80;;;6.90;98.30;;;;;;5094414;23;20512;-80
2021/11/18 03:57:33;;;;;;;13.00;5.37;;;6.90;98.30;;;;;;5094669;23;21224;-80
2021/11/18 03:59:40;;;;;;;20.90;6.00;;;7.00;98.30;;;;;;5093263;23;20448;-78
2021/11/18 04:01:45;;;;;;;15.00;5.30;;;7.00;98.30;;;;;;5092260;23;20418;-77
2021/11/18 04:03:49;;;;;;;16.63;5.87;;;7.00;98.30;;;;;;5092581;23;20984;-78
2021/11/18 04:05:52;;;;;;;16.37;6.20;;;7.00;98.30;;;;;;5100242;23;20406;-77
2021/11/18 04:07:55;;;;;;;17.50;5.40;;;7.10;98.30;;;;;;5092411;23;20487;-77
2021/11/18 04:09:57;;;;;;;13.53;5.30;;;7.10;98.30;;;;;;5092105;23;20488;-77
2021/11/18 04:12:01;;;;;;;16.80;6.00;;;7.10;98.30;;;;;;5092819;23;20409;-78
2021/11/18 04:14:07;;;;;;;17.47;5.80;;;7.10;98.30;;;;;;5092523;23;20448;-78
2021/11/18 04:16:11;;;;;;;20.53;5.80;;;7.10;98.30;;;;;;5092609;23;20764;-77
2021/11/18 04:18:14;;;;;;;19.57;5.93;;;7.20;98.30;;;;;;5092514;23;20435;-77
2021/11/18 04:20:17;;;;;;;21.53;7.00;;;7.20;98.30;;;;;;5090848;23;20458;-78
2021/11/18 04:22:20;;;;;;;20.50;5.97;;;7.20;98.30;;;;;;5092245;23;20489;-78
2021/11/18 04:24:25;;;;;;;18.50;6.00;;;7.30;98.30;;;;;;5091885;23;20461;-78
2021/11/18 04:26:29;;;;;;;16.20;6.03;;;7.30;98.30;;;;;;5092604;23;20429;-77
2021/11/18 04:28:32;;;;;;;14.13;6.47;;;7.30;98.30;;;;;;5092445;23;20442;-77
2021/11/18 04:30:38;;;;;;;23.40;6.40;;;7.30;98.30;;;;;;5092020;23;20438;-77
2021/11/18 04:32:42;;;;;;;14.37;7.20;;;7.30;98.30;;;;;;5092622;23;20503;-77
2021/11/18 04:34:47;;;;;;;12.53;5.93;;;7.40;98.30;;;;;;5100537;23;20450;-77
2021/11/18 04:36:50;;;;;;;16.90;5.93;;;7.40;98.30;;;;;;5092425;23;20441;-77
2021/11/18 04:38:53;;;;;;;13.37;5.87;;;7.40;98.30;;;;;;5091889;23;20978;-78
2021/11/18 04:40:57;;;;;;;18.13;6.63;;;7.40;98.30;;;;;;5091927;23;20451;-77
2021/11/18 04:43:01;;;;;;;14.33;6.30;;;7.40;98.30;;;;;;5092439;23;20461;-77
2021/11/18 04:45:06;;;;;;;16.00;6.07;;;7.40;98.30;;;;;;5091793;23;20417;-77
2021/11/18 04:47:12;;;;;;;18.20;6.57;;;7.40;98.30;;;;;;5092403;23;20431;-78
2021/11/18 04:49:17;;;;;;;21.57;7.80;;;7.40;98.30;;;;;;5099855;23;20482;-78
2021/11/18 04:51:23;;;;;;;15.63;5.97;;;7.40;98.30;;;;;;5092557;23;20439;-78
2021/11/18 04:53:26;;;;;;;16.07;6.13;;;7.40;98.30;;;;;;5092327;23;20461;-78
2021/11/18 04:55:30;;;;;;;28.53;7.10;;;7.40;98.30;;;;;;5092231;23;20431;-78
2021/11/18 04:57:33;;;;;;;19.43;6.67;;;7.40;98.30;;;;;;5092380;23;20434;-78
2021/11/18 04:59:36;;;;;;;21.57;6.10;;;7.40;98.30;;;;;;5091737;23;20429;-77
2021/11/18 05:01:39;;;;;;;20.33;6.70;;;7.40;98.30;;;;;;5091941;23;20439;-77
2021/11/18 05:03:43;;;;;;;20.03;6.97;;;7.40;98.30;;;;;;5091745;23;20447;-77
2021/11/18 05:05:48;;;;;;;16.10;7.20;;;7.40;98.30;;;;;;5091277;23;20452;-78
2021/11/18 05:07:51;;;;;;;18.27;7.43;;;7.40;98.30;;;;;;5091920;23;20437;-77
2021/11/18 05:09:54;;;;;;;17.73;7.10;;;7.40;98.30;;;;;;5091839;23;20501;-78
2021/11/18 05:11:57;;;;;;;20.30;6.70;;;7.40;98.30;;;;;;5092229;23;20434;-78
2021/11/18 05:14:00;;;;;;;19.43;6.97;;;7.40;98.30;;;;;;5100390;23;20455;-78
2021/11/18 05:16:07;;;;;;;16.83;7.30;;;7.40;98.30;;;;;;5091906;23;20427;-78
2021/11/18 05:18:10;;;;;;;23.13;6.67;;;7.50;98.30;;;;;;5091976;23;20942;-78
2021/11/18 05:20:14;;;;;;;18.93;6.23;;;7.40;98.30;;;;;;5091531;23;20512;-77
2021/11/18 05:22:18;;;;;;;15.53;6.90;;;7.40;98.30;;;;;;5091823;23;20484;-78
2021/11/18 05:31:01;;;;;;;21.30;7.47;;;7.40;98.30;;;;;;5131019;23;20442;-78
2021/11/18 05:33:08;;;;;;;16.83;7.33;;;7.40;98.30;;;;;;5120596;23;20422;-80
2021/11/18 05:35:12;;;;;;;17.30;6.17;;;7.40;98.30;;;;;;5126532;23;20449;-81
2021/11/18 05:37:15;;;;;;;12.10;6.20;;;7.40;98.30;;;;;;5126987;23;20898;-80
2021/11/18 05:39:19;;;;;;;18.50;7.43;;;7.40;98.30;;;;;;5118223;23;20456;-81
2021/11/18 05:41:23;;;;;;;21.10;7.20;;;7.40;98.30;;;;;;5126287;23;20445;-81
2021/11/18 05:43:28;;;;;;;15.53;7.03;;;7.50;98.30;;;;;;5118971;23;20938;-80
2021/11/18 05:45:34;;;;;;;22.97;8.17;;;7.50;98.30;;;;;;5126858;23;20451;-81
2021/11/18 05:47:37;;;;;;;12.17;6.20;;;7.50;98.30;;;;;;5119088;23;20957;-80
2021/11/18 05:49:40;;;;;;;24.57;8.03;;;7.50;98.30;;;;;;5118161;23;20447;-80
2021/11/18 05:51:42;;;;;;;15.30;6.27;;;7.50;98.30;;;;;;5118561;23;20519;-80
2021/11/18 05:53:47;;;;;;;24.60;7.67;;;7.60;98.30;;;;;;5126194;23;20428;-80
2021/11/18 05:55:51;;;;;;;24.03;7.23;;;7.60;98.30;;;;;;5118735;23;20437;-79
2021/11/18 05:57:55;;;;;;;29.07;9.90;;;7.60;98.30;;;;;;5117429;23;20435;-80
2021/11/18 05:59:59;;;;;;;16.53;8.60;;;7.50;98.30;;;;;;5116847;23;20451;-80
2021/11/18 06:02:02;;;;;;;17.87;8.87;;;7.60;98.30;;;;;;5126183;23;20425;-80
2021/11/18 06:04:09;;;;;;;23.80;7.17;;;7.60;98.30;;;;;;5117529;23;20899;-80
2021/11/18 06:06:13;;;;;;;16.93;7.43;;;7.60;98.30;;;;;;5116968;23;20437;-80
2021/11/18 06:08:16;;;;;;;19.93;8.30;;;7.60;98.30;;;;;;5117882;23;20456;-80
2021/11/18 06:10:20;;;;;;;23.30;9.23;;;7.60;98.30;;;;;;5117373;23;20435;-80
2021/11/18 06:12:24;;;;;;;18.80;7.77;;;7.60;98.30;;;;;;5118423;23;20517;-80
2021/11/18 06:14:28;;;;;;;24.40;8.10;;;7.60;98.30;;;;;;5127043;23;20937;-80
2021/11/18 06:16:31;;;;;;;23.93;9.70;;;7.70;98.30;;;;;;5126833;23;20421;-80
2021/11/18 06:18:34;;;;;;;21.63;7.93;;;7.60;98.30;;;;;;5118200;23;20426;-80
2021/11/18 06:20:38;;;;;;;23.67;8.60;;;7.70;98.30;;;;;;5118986;23;20958;-80
2021/11/18 06:22:41;;;;;;;29.30;10.83;;;7.60;98.30;;;;;;5118765;23;20440;-80
2021/11/18 06:24:44;;;;;;;25.00;8.37;;;7.60;98.30;;;;;;5118808;23;20541;-80
2021/11/18 06:26:48;;;;;;;28.00;9.00;;;7.60;98.30;;;;;;5119022;23;20428;-80
2021/11/18 06:28:52;;;;;;;19.40;8.40;;;7.60;98.30;;;;;;5118710;23;20436;-80
2021/11/18 06:30:58;;;;;;;23.00;9.97;;;7.60;98.30;;;;;;5126912;23;20460;-80
2021/11/18 06:33:01;;;;;;;20.00;8.60;;;7.70;98.30;;;;;;5119079;23;20438;-80
2021/11/18 06:35:05;;;;;;;23.23;9.00;;;7.60;98.30;;;;;;5119047;23;20436;-80
2021/11/18 06:37:09;;;;;;;22.30;7.70;;;7.70;98.30;;;;;;5127712;23;20430;-80
2021/11/18 06:39:13;;;;;;;22.77;8.50;;;7.70;98.30;;;;;;5121035;23;20484;-80
2021/11/18 06:41:17;;;;;;;22.03;8.37;;;7.60;98.30;;;;;;5120376;23;20818;-80
2021/11/18 06:43:21;;;;;;;21.70;9.50;;;7.70;98.30;;;;;;5120760;23;20913;-80
2021/11/18 06:45:28;;;;;;;17.60;7.77;;;7.70;98.30;;;;;;5121181;23;20535;-80
2021/11/18 06:47:31;;;;;;;23.20;7.97;;;7.70;98.30;;;;;;5120328;23;20441;-80
2021/11/18 06:49:34;;;;;;;18.50;7.40;;;7.70;98.30;;;;;;5122518;23;20445;-80
2021/11/18 06:51:41;;;;;;;23.57;6.93;;;7.70;98.30;;;;;;5128752;23;20729;-80
2021/11/18 06:53:50;;;;;;;17.33;7.53;;;7.70;98.30;;;;;;5128493;23;20428;-80
2021/11/18 06:55:53;;;;;;;20.80;8.37;;;7.70;98.30;;;;;;5129042;23;20418;-80
2021/11/18 06:57:56;;;;;;;27.53;11.97;;;7.70;98.30;;;;;;5128737;23;20499;-80
2021/11/18 06:59:59;;;;;;;26.10;8.57;;;7.70;98.30;;;;;;5120864;23;20435;-80
2021/11/18 07:02:03;;;;;;;26.30;7.50;;;7.70;98.30;;;;;;5128786;23;20441;-80
2021/11/18 07:04:08;;;;;;;26.57;8.53;;;7.80;98.30;;;;;;5131215;23;20473;-81
2021/11/18 07:06:13;;;;;;;24.00;8.07;;;7.80;98.30;;;;;;5131384;23;20437;-81
2021/11/18 07:08:19;;;;;;;22.63;7.30;;;7.80;98.30;;;;;;5131979;23;20433;-81
2021/11/18 07:10:24;;;;;;;16.23;7.20;;;7.80;98.30;;;;;;5140055;23;20434;-81
2021/11/18 07:15:01;;;;;;;24.27;9.10;;;7.80;98.30;;;;;;5132398;23;20446;-81
2021/11/18 07:17:06;;;;;;;19.07;7.30;;;7.90;98.30;;;;;;5138235;23;20452;-81
2021/11/18 07:19:10;;;;;;;21.90;8.60;;;7.90;98.30;;;;;;5137976;23;20425;-80
2021/11/18 07:21:18;;;;;;;17.70;8.30;;;7.90;98.30;;;;;;5137237;23;20446;-81
2021/11/18 07:23:22;;;;;;;20.27;8.10;;;7.90;98.30;;;;;;5137962;23;20432;-81
2021/11/18 07:25:28;;;;;;;31.20;11.03;;;7.90;98.30;;;;;;5138037;23;20472;-81
2021/11/18 07:27:31;;;;;;;23.03;9.40;;;7.90;98.30;;;;;;5136552;23;20438;-81
2021/11/18 07:29:34;;;;;;;28.53;9.50;;;7.90;98.30;;;;;;5137028;23;20434;-81
2021/11/18 07:31:38;;;;;;;20.57;8.60;;;7.90;98.30;;;;;;5127421;23;20425;-81
2021/11/18 07:33:42;;;;;;;21.47;7.67;;;7.90;98.30;;;;;;5137249;23;20421;-81
2021/11/18 07:35:46;;;;;;;19.80;7.60;;;8.00;98.30;;;;;;5137176;23;20499;-80
2021/11/18 07:37:49;;;;;;;22.07;8.33;;;8.00;98.30;;;;;;5137374;23;20446;-80
2021/11/18 07:39:52;;;;;;;22.07;8.27;;;8.00;98.30;;;;;;5128876;23;20440;-81
2021/11/18 07:42:01;;;;;;;19.33;8.73;;;8.00;98.30;;;;;;5137910;23;20833;-80
2021/11/18 07:44:04;;;;;;;16.77;7.60;;;8.10;98.30;;;;;;5130737;23;21031;-81
2021/11/18 07:46:28;;;;;;;23.47;8.67;;;8.10;98.30;;;;;;5130249;23;20447;-80
2021/11/18 07:48:32;;;;;;;19.03;7.50;;;8.10;98.30;;;;;;5138225;23;20483;-80
2021/11/18 07:50:36;;;;;;;22.60;9.27;;;8.10;98.30;;;;;;5139405;23;20453;-81
2021/11/18 07:52:41;;;;;;;26.23;9.67;;;8.20;98.30;;;;;;5137685;23;20414;-81
2021/11/18 07:54:47;;;;;;;18.20;8.53;;;8.20;98.30;;;;;;5135392;23;20450;-80
2021/11/18 07:56:50;;;;;;;23.27;8.27;;;8.20;98.30;;;;;;5135860;23;20432;-81
2021/11/18 07:58:53;;;;;;;21.53;8.40;;;8.20;98.30;;;;;;5134794;23;20510;-80
2021/11/18 08:00:56;;;;;;;28.27;9.60;;;8.10;98.30;;;;;;5136210;23;20508;-80
2021/11/18 08:03:06;;;;;;;19.43;7.60;;;8.20;98.30;;;;;;5137365;23;20462;-80
2021/11/18 08:05:10;;;;;;;25.50;8.40;;;8.20;98.30;;;;;;5136387;23;20474;-81
2021/11/18 08:07:15;;;;;;;17.07;6.97;;;8.20;98.30;;;;;;5137284;23;20435;-80
2021/11/18 08:09:19;;;;;;;28.03;9.67;;;8.20;98.30;;;;;;5135759;23;20444;-81
2021/11/18 08:11:24;;;;;;;13.90;6.53;;;8.20;98.30;;;;;;5129768;23;20443;-81
2021/11/18 08:13:27;;;;;;;21.17;6.97;;;8.30;98.30;;;;;;5137966;23;20500;-80
2021/11/18 08:15:31;;;;;;;22.80;7.90;;;8.30;98.30;;;;;;5129694;23;20988;-81
2021/11/18 08:17:34;;;;;;;20.03;8.10;;;8.30;98.30;;;;;;5138002;23;20423;-80
2021/11/18 08:19:36;;;;;;;23.87;7.83;;;8.40;98.30;;;;;;5129212;23;20454;-81
2021/11/18 08:21:41;;;;;;;26.47;9.43;;;8.40;98.30;;;;;;5129339;23;20483;-80
2021/11/18 08:23:45;;;;;;;24.50;7.53;;;8.40;98.30;;;;;;5128125;23;20907;-81
2021/11/18 08:25:48;;;;;;;18.83;7.80;;;8.50;98.30;;;;;;5126947;23;20437;-81
2021/11/18 08:27:51;;;;;;;26.67;7.93;;;8.50;98.30;;;;;;5134579;23;20419;-81
2021/11/18 08:29:54;;;;;;;18.73;9.07;;;8.50;98.30;;;;;;5136254;23;20447;-80
2021/11/18 08:32:01;;;;;;;24.37;10.40;;;8.60;98.30;;;;;;5135614;23;20418;-81
2021/11/18 08:34:06;;;;;;;26.07;8.80;;;8.50;98.30;;;;;;5136007;23;20770;-81
2021/11/18 08:36:09;;;;;;;22.67;7.63;;;8.50;98.30;;;;;;5136700;23;20423;-81
2021/11/18 08:38:14;;;;;;;19.10;9.33;;;8.60;98.30;;;;;;5128331;23;20554;-80
2021/11/18 08:40:18;;;;;;;28.57;8.77;;;8.60;98.30;;;;;;5137364;23;20463;-80
2021/11/18 08:42:24;;;;;;;23.37;10.70;;;8.60;98.30;;;;;;5130481;23;20507;-80
2021/11/18 08:44:33;;;;;;;25.43;7.90;;;8.60;98.30;;;;;;5131281;23;20459;-79
2021/11/18 08:46:35;;;;;;;20.50;7.57;;;8.60;98.30;;;;;;5140155;23;20402;-79
2021/11/18 08:48:39;;;;;;;17.80;7.60;;;8.60;98.30;;;;;;5139502;23;20483;-80
2021/11/18 08:50:52;;;;;;;30.37;10.50;;;8.60;98.30;;;;;;5140866;23;20396;-80
2021/11/18 08:52:55;;;;;;;21.10;8.70;;;8.60;98.30;;;;;;5132558;23;20425;-80
2021/11/18 08:55:00;;;;;;;24.30;9.87;;;8.60;98.30;;;;;;5140107;23;20549;-80
2021/11/18 08:57:05;;;;;;;25.67;10.17;;;8.60;98.30;;;;;;5129226;23;20467;-80
2021/11/18 08:59:08;;;;;;;31.77;11.30;;;8.60;98.30;;;;;;5129112;23;20925;-80
2021/11/18 09:01:15;;;;;;;20.87;8.57;;;8.60;98.30;;;;;;5129649;23;20853;-80
2021/11/18 09:03:20;;;;;;;24.03;10.57;;;8.70;98.30;;;;;;5138110;23;20439;-80
2021/11/18 09:05:25;;;;;;;23.97;8.60;;;8.70;98.30;;;;;;5136155;23;20766;-80
2021/11/18 09:07:29;;;;;;;24.57;10.10;;;8.70;98.30;;;;;;5136444;23;20461;-80
2021/11/18 09:09:32;;;;;;;25.17;9.23;;;8.60;98.30;;;;;;5127150;23;20515;-80
2021/11/18 09:11:37;;;;;;;26.73;10.63;;;8.70;98.30;;;;;;5136812;23;20992;-80
2021/11/18 09:13:43;;;;;;;20.90;9.23;;;8.70;98.30;;;;;;5128606;23;20430;-80
2021/11/18 09:15:46;;;;;;;28.43;13.63;;;8.70;98.30;;;;;;5127651;23;20464;-79
2021/11/18 09:17:50;;;;;;;27.03;11.70;;;8.70;98.30;;;;;;5128103;23;20515;-80
2021/11/18 09:19:54;;;;;;;21.53;8.90;;;8.70;98.30;;;;;;5127145;23;20444;-80
2021/11/18 09:21:58;;;;;;;29.83;10.10;;;8.80;98.30;;;;;;5128728;23;20433;-80
2021/11/18 09:24:05;;;;;;;17.13;8.43;;;8.80;98.30;;;;;;5136768;23;20438;-80
2021/11/18 09:26:09;;;;;;;39.67;12.83;;;8.80;98.30;;;;;;5128490;23;20421;-80
2021/11/18 09:28:15;;;;;;;29.33;8.60;;;8.80;98.30;;;;;;5128368;23;20486;-80
2021/11/18 09:30:23;;;;;;;22.57;9.13;;;8.80;98.30;;;;;;5128202;23;20500;-80
2021/11/18 09:32:29;;;;;;;36.60;10.87;;;8.80;98.30;;;;;;5137345;23;20471;-80
2021/11/18 09:34:32;;;;;;;22.10;11.13;;;8.90;98.30;;;;;;5137007;23;20448;-79
2021/11/18 09:36:35;;;;;;;27.17;10.77;;;8.90;98.30;;;;;;5128921;23;20993;-80
2021/11/18 09:38:43;;;;;;;23.97;9.20;;;8.90;98.30;;;;;;5128641;23;20832;-80
2021/11/18 09:40:50;;;;;;;31.43;10.23;;;8.90;98.30;;;;;;5137121;23;20465;-80
2021/11/18 09:43:24;;;;;;;21.87;8.63;;;8.90;98.30;;;;;;5128848;23;20515;-80
2021/11/18 09:45:31;;;;;;;28.77;10.27;;;8.90;98.30;;;;;;5128981;23;20455;-80
2021/11/18 09:48:20;;;;;;;29.53;9.87;;;8.90;98.30;;;;;;5138574;23;20442;-80
2021/11/18 09:50:35;;;;;;;27.60;11.80;;;9.00;98.30;;;;;;5137281;23;20810;-80
2021/11/18 09:52:48;;;;;;;16.40;8.43;;;8.90;98.30;;;;;;5129918;23;20432;-79
2021/11/18 09:54:59;;;;;;;21.67;9.57;;;8.90;98.30;;;;;;5130066;23;20473;-79
2021/11/18 09:57:16;;;;;;;25.03;10.10;;;9.00;98.30;;;;;;5129055;23;20427;-80
2021/11/18 09:59:27;;;;;;;18.60;8.97;;;9.00;98.30;;;;;;5127018;23;20818;-80
2021/11/18 10:02:01;;;;;;;19.20;9.57;;;9.00;98.30;;;;;;5128055;23;20488;-79
2021/11/18 10:04:24;;;;;;;20.53;12.03;;;9.00;98.30;;;;;;5126407;23;20457;-79
2021/11/18 10:06:30;;;;;;;21.47;11.20;;;9.00;98.30;;;;;;5134291;23;20482;-79
2021/11/18 10:08:36;;;;;;;38.67;12.07;;;9.00;98.30;;;;;;5135230;23;20449;-80
2021/11/18 10:10:45;;;;;;;23.00;9.67;;;9.00;98.30;;;;;;5128380;23;20497;-80
2021/11/18 10:13:26;;;;;;;23.93;9.70;;;9.00;98.30;;;;;;5126418;23;20929;-79
2021/11/18 10:15:31;;;;;;;28.43;13.57;;;9.10;98.30;;;;;;5129374;23;20482;-79
2021/11/18 10:17:38;;;;;;;25.70;12.90;;;9.10;98.30;;;;;;5129026;23;20433;-80
2021/11/18 10:19:44;;;;;;;22.83;9.20;;;9.20;98.30;;;;;;5129030;23;20980;-80
2021/11/18 10:21:51;;;;;;;28.97;11.00;;;9.20;98.30;;;;;;5136170;23;20413;-80
2021/11/18 10:24:00;;;;;;;27.83;8.97;;;9.20;98.30;;;;;;5134752;23;20444;-80
2021/11/18 10:26:07;;;;;;;21.37;10.50;;;9.20;98.30;;;;;;5138203;23;20421;-80
2021/11/18 10:28:41;;;;;;;27.70;9.80;;;9.20;98.30;;;;;;5135997;23;20436;-79
2021/11/18 10:30:50;;;;;;;22.07;11.17;;;9.20;98.30;;;;;;5122254;23;20452;-80
2021/11/18 10:33:01;;;;;;;16.20;7.60;;;9.20;98.30;;;;;;5136361;23;20401;-79
2021/11/18 10:35:12;;;;;;;26.33;10.10;;;9.20;98.30;;;;;;5127751;23;20969;-80
2021/11/18 10:37:20;;;;;;;21.03;8.57;;;9.20;98.30;;;;;;5137823;23;20426;-80
2021/11/18 10:39:32;;;;;;;29.63;12.03;;;9.30;98.30;;;;;;5128671;23;20428;-80
2021/11/18 10:41:36;;;;;;;25.77;9.40;;;9.30;98.30;;;;;;5128797;23;20429;-80
2021/11/18 10:43:40;;;;;;;19.53;8.63;;;9.30;98.30;;;;;;5128768;23;20454;-80
2021/11/18 10:45:46;;;;;;;15.43;9.43;;;9.40;98.30;;;;;;5137999;23;20432;-80
2021/11/18 10:48:00;;;;;;;26.93;11.50;;;9.40;98.30;;;;;;5137211;23;20798;-80
2021/11/18 10:50:27;;;;;;;19.07;9.80;;;9.50;98.30;;;;;;5129602;23;20430;-80
2021/11/18 10:52:34;;;;;;;21.93;10.67;;;9.60;98.30;;;;;;5130370;23;20432;-81
2021/11/18 10:54:44;;;;;;;26.33;9.20;;;9.60;98.30;;;;;;5139329;23;20437;-80
2021/11/18 10:56:54;;;;;;;14.23;8.60;;;9.70;98.30;;;;;;5139059;23;20431;-80
2021/11/18 10:59:11;;;;;;;18.70;8.97;;;9.70;98.30;;;;;;5128954;23;20890;-80
2021/11/18 11:01:29;;;;;;;34.13;9.70;;;9.70;98.30;;;;;;5137358;23;20405;-80